Chem Houston — D5FT8 — position and weather

sailwx.info

Track history (hours):
 
Tides and Currents Weather Stations Pressure Air Temp Water Temp Dewpoint Dewpoint Depression Visibility Wind Speed Wind Dir Waves Ship Positions

Chem Houston

Last reported at 2018-Feb-20 20:33 UTC. Time now 2018-Feb-21 11:54 UTC.
Position N 19°60' W 095°30'.

Length 145 m; draft 6.9 m.

Type: Tanker. MMSI: 636016360.

Date/timePositionNaut miles runAvg speedWind from/ knotsBaromVisibWave heightAir tempDewpointWater temp
2018-Feb-20 20:33N 19°60' W 095°30'  
2018-Feb-16 13:39N 26°11' W 079°24'214.0
2018-Feb-16 13:30N 26°13' W 079°23'34313.1
2018-Feb-15 11:23N 31°50' W 080°36'4 9.6
2018-Feb-15 11:00N 31°53' W 080°39'5 9.6
2018-Feb-15 10:27N 31°57' W 080°43'510.7
2018-Feb-15 10:00N 32°00' W 080°47'510.8
2018-Feb-15 09:30N 32°02' W 080°53'4 8.8
2018-Feb-15 09:00N 32°04' W 080°58'4 8.1
2018-Feb-15 08:30N 32°05' W 081°02'5 4.2
2018-Feb-15 07:17N 32°07' W 081°08'0 0.0
2018-Feb-15 03:21N 32°07' W 081°08'0 0.0
2018-Feb-14 18:57N 32°07' W 081°08'0 0.0
2018-Feb-14 15:27N 32°07' W 081°08'0 0.0
2018-Feb-14 14:57N 32°07' W 081°08'0 0.0
2018-Feb-14 14:09N 32°07' W 081°08'0 0.1
2018-Feb-14 13:57N 32°07' W 081°08'0 0.0
2018-Feb-14 13:21N 32°07' W 081°08'0 0.0
2018-Feb-14 12:57N 32°07' W 081°08'0 0.0
2018-Feb-14 12:27N 32°07' W 081°08'0 0.0
2018-Feb-14 11:15N 32°07' W 081°08'0 0.0
2018-Feb-14 10:57N 32°07' W 081°08'0 0.0
2018-Feb-14 10:27N 32°07' W 081°08'0 0.0
2018-Feb-14 09:57N 32°07' W 081°08'0 0.0
2018-Feb-14 09:27N 32°07' W 081°08'0 0.0
2018-Feb-14 08:57N 32°07' W 081°08'0 0.0
2018-Feb-14 08:27N 32°07' W 081°08'0 0.0
2018-Feb-14 07:57N 32°07' W 081°08'0 0.0
2018-Feb-14 07:27N 32°07' W 081°08'0 0.0
2018-Feb-14 06:51N 32°07' W 081°08'0 0.0
2018-Feb-14 06:25N 32°07' W 081°08'1 1.4
2018-Feb-14 06:00N 32°07' W 081°07'3 6.0
2018-Feb-14 05:30N 32°05' W 081°05'4 7.3
2018-Feb-14 05:00N 32°06' W 081°01'510.1
2018-Feb-14 04:30N 32°03' W 080°56'510.4
2018-Feb-14 04:00N 32°02' W 080°50'611.9
2018-Feb-14 03:30N 31°58' W 080°44'4 7.7
2018-Feb-14 03:00N 31°57' W 080°40'3 6.0
2018-Feb-14 02:29N 31°57' W 080°36'0 0.6
2018-Feb-14 02:00N 31°57' W 080°36'1 1.1
2018-Feb-14 01:30N 31°57' W 080°35'2 4.8
2018-Feb-14 01:00N 31°57' W 080°33'3 5.4
2018-Feb-14 00:29N 31°57' W 080°29'3 5.3
2018-Feb-13 23:53N 31°56' W 080°26'  
Track history (hours):
 
Tides and Currents Weather Stations Pressure Air Temp Water Temp Dewpoint Dewpoint Depression Visibility Wind Speed Wind Dir Waves Ship Positions

Chem Houston

Last reported at 2018-Feb-20 20:33 UTC. Time now 2018-Feb-21 11:54 UTC.
Position N 19°60' W 095°30'.

Length 145 m; draft 6.9 m.

Type: Tanker. MMSI: 636016360.

Date/timePositionNaut miles runAvg speedWind from/ knotsBaromVisibWave heightAir tempDewpointWater temp
2018-Feb-20 20:33N 19°60' W 095°30'  
2018-Feb-16 13:39N 26°11' W 079°24'214.0
2018-Feb-16 13:30N 26°13' W 079°23'34313.1
2018-Feb-15 11:23N 31°50' W 080°36'4 9.6
2018-Feb-15 11:00N 31°53' W 080°39'5 9.6
2018-Feb-15 10:27N 31°57' W 080°43'510.7
2018-Feb-15 10:00N 32°00' W 080°47'510.8
2018-Feb-15 09:30N 32°02' W 080°53'4 8.8
2018-Feb-15 09:00N 32°04' W 080°58'4 8.1
2018-Feb-15 08:30N 32°05' W 081°02'5 4.2
2018-Feb-15 07:17N 32°07' W 081°08'0 0.0
2018-Feb-15 03:21N 32°07' W 081°08'0 0.0
2018-Feb-14 18:57N 32°07' W 081°08'0 0.0
2018-Feb-14 15:27N 32°07' W 081°08'0 0.0
2018-Feb-14 14:57N 32°07' W 081°08'0 0.0
2018-Feb-14 14:09N 32°07' W 081°08'0 0.1
2018-Feb-14 13:57N 32°07' W 081°08'0 0.0
2018-Feb-14 13:21N 32°07' W 081°08'0 0.0
2018-Feb-14 12:57N 32°07' W 081°08'0 0.0
2018-Feb-14 12:27N 32°07' W 081°08'0 0.0
2018-Feb-14 11:15N 32°07' W 081°08'0 0.0
2018-Feb-14 10:57N 32°07' W 081°08'0 0.0
2018-Feb-14 10:27N 32°07' W 081°08'0 0.0
2018-Feb-14 09:57N 32°07' W 081°08'0 0.0
2018-Feb-14 09:27N 32°07' W 081°08'0 0.0
2018-Feb-14 08:57N 32°07' W 081°08'0 0.0
2018-Feb-14 08:27N 32°07' W 081°08'0 0.0
2018-Feb-14 07:57N 32°07' W 081°08'0 0.0
2018-Feb-14 07:27N 32°07' W 081°08'0 0.0
2018-Feb-14 06:51N 32°07' W 081°08'0 0.0
2018-Feb-14 06:25N 32°07' W 081°08'1 1.4
2018-Feb-14 06:00N 32°07' W 081°07'3 6.0
2018-Feb-14 05:30N 32°05' W 081°05'4 7.3
2018-Feb-14 05:00N 32°06' W 081°01'510.1
2018-Feb-14 04:30N 32°03' W 080°56'510.4
2018-Feb-14 04:00N 32°02' W 080°50'611.9
2018-Feb-14 03:30N 31°58' W 080°44'4 7.7
2018-Feb-14 03:00N 31°57' W 080°40'3 6.0
2018-Feb-14 02:29N 31°57' W 080°36'0 0.6
2018-Feb-14 02:00N 31°57' W 080°36'1 1.1
2018-Feb-14 01:30N 31°57' W 080°35'2 4.8
2018-Feb-14 01:00N 31°57' W 080°33'3 5.4
2018-Feb-14 00:29N 31°57' W 080°29'3 5.3
2018-Feb-13 23:53N 31°56' W 080°26'  

Dump ship's entire track history